Aérodrome :
LOGIN :

S'inscrire | Disclaimer

   EN    FR    IT 

 










Légende :    VFR   VFR Marginal   IFR   IFR Intensif   IFR Très Intensif
Visi : 
Plafond : 
>= 8 km
>= 3000ft
5 à 8 km
1000 à 3000 ft
1500m à 5 km
500 à 1000 ft
800 à 1500m
200 à 500 ft
< 800m
< 200 ft
Symboles :   Orages  Brouillard  Fortes neiges  Fortes précipitations  Vent > 20 kt
SIGMETs :   Divers  Orages  Givrage  Turbulence  Onde Orograph.  Cendres Volcan.







- Altitude de l'aérodrome : 529 ft
- Code IATA : CHR
- Voir les cartes d'approche


LFLX - Chateauroux

DERNIER METAR :
  • 220000Z AUTO 25019KT 6000 -RADZ OVC007 11/10 Q1018 TEMPO 2500 -RADZ BKN003 BECMG 24020G30KT

METARs EXPIRÉS :
  • 212330Z AUTO 25017KT 5000 -RADZ BR OVC006 11/10 Q1018 TEMPO 2500 -RADZ BKN003 BECMG 24020G30KT
  • 212300Z AUTO 25018KT 6000 BKN007 OVC011 11/10 Q1018 TEMPO 3000 -RADZ BKN003 BECMG 22015G25KT
  • 212230Z AUTO 25017KT 9000 OVC008 11/10 Q1018 TEMPO 3000 -RADZ BKN003 BECMG 22015G25KT
  • 212200Z AUTO 26018KT 9999 BKN008 OVC013 11/10 Q1018 TEMPO 3000 -RADZ BKN003 BECMG 22015G25KT
  • 212130Z AUTO 26020KT 9999 BKN010 OVC016 11/10 Q1018 TEMPO 3000 -RADZ BKN003 BECMG 22015G25KT

TAF TAF LFLX
Valide du 22 à 00h jusqu'au 23 à 06h UTC


212300Z 2200/2306 24020G30KT 9999 BKN012
TEMPO 2200/2210 2500 -RADZ BKN003
TEMPO 2209/2216 26025G40KT
BECMG 2210/2212 BKN020
TEMPO 2213/2216 -RA BKN008
BECMG 2218/2221 24007KT
TEMPO 2302/2306 BKN005
Pas de NOTAMs connus pour ce terrain.
1 SIGMET publié pour la FIR Bordeaux (LFBB) :
 
Turbulence forte
LFBB SIGMET 7 VALID 220000/220400 LFPW
LFBB BORDEAUX FIR/UIR SEV TURB FCST WI N4600 E00300 - N4215 E00230 - N4230 E00115 - N4415 E00230 - N4615 E00245 - N4600 E00300 SFC/FL080 STNR NC=



MET'MAP, la Météo Aéronautique d'un coup d'oeil ! - Copyright ORBIFLY Décembre 2007 - Disclaimer

ORBIFLY MET'MAP TEAM :

Programmation & Développement : Alexandra Zaïnal
Conception & Développement : Baudouin d'Aumeries
Co-Programmation & Développement : Marc-Olivier Méhu
Soutien technique & logistique : Manuel Goepfert

Contact : metmap@orbifly.com




SOURCES & CREDITS :

   NOAA